Hingham, United Kingdom
Current Conditions -  °F | °C
As of 8:20 PM on Thursday 18 Dec 2014 (Local Time) from EGSH Reporting Station
Broken Clouds Broken Clouds  
Wind Chill: 55°   Ceiling: 2000
Heat Index: 55°   Visibility: 6mi
Dew Point: 50°   Wind: 23mph
Humidity: 82%   Direction: 240°WSW
Pressure: 29.71"   Gusts: NA
Location:  52.58°N, 0.98°E
Report Text: EGSH 182020Z 24020KT 9999 BKN020 13/10 Q1006 NOSIG
Loading
Personal Weather Stations






























Interactive Weather Map New forecast layout! Learn more

10-Day Weather Forecast

Advertisements
Track Severe Weather on mobile